sensor_id;sensor_type;location;lat;lon;timestamp;P1;durP1;ratioP1;P2;durP2;ratioP2
82352;SDS011;71954;47.430;18.920;2024-02-21T00:00:06;3.90;;;2.05;;
82352;SDS011;71954;47.430;18.920;2024-02-21T00:02:33;3.28;;;1.80;;
82352;SDS011;71954;47.430;18.920;2024-02-21T00:05:00;4.07;;;2.10;;
82352;SDS011;71954;47.430;18.920;2024-02-21T00:07:27;4.50;;;1.95;;
82352;SDS011;71954;47.430;18.920;2024-02-21T00:09:53;3.88;;;1.80;;
82352;SDS011;71954;47.430;18.920;2024-02-21T00:12:20;4.43;;;2.28;;
82352;SDS011;71954;47.430;18.920;2024-02-21T00:14:47;5.95;;;2.83;;
82352;SDS011;71954;47.430;18.920;2024-02-21T00:17:13;5.82;;;2.33;;
82352;SDS011;71954;47.430;18.920;2024-02-21T00:19:40;5.30;;;1.98;;
82352;SDS011;71954;47.430;18.920;2024-02-21T00:22:06;3.72;;;2.10;;
82352;SDS011;71954;47.430;18.920;2024-02-21T00:24:34;4.20;;;1.70;;
82352;SDS011;71954;47.430;18.920;2024-02-21T00:27:01;3.80;;;1.30;;
82352;SDS011;71954;47.430;18.920;2024-02-21T00:29:27;4.70;;;1.50;;
82352;SDS011;71954;47.430;18.920;2024-02-21T00:31:54;2.55;;;1.00;;
82352;SDS011;71954;47.430;18.920;2024-02-21T00:34:21;2.20;;;0.82;;
82352;SDS011;71954;47.430;18.920;2024-02-21T00:36:48;4.38;;;1.13;;
82352;SDS011;71954;47.430;18.920;2024-02-21T00:39:14;3.47;;;1.00;;
82352;SDS011;71954;47.430;18.920;2024-02-21T00:41:41;2.53;;;0.80;;
82352;SDS011;71954;47.430;18.920;2024-02-21T00:44:07;2.95;;;0.95;;
82352;SDS011;71954;47.430;18.920;2024-02-21T00:46:34;4.97;;;1.33;;
82352;SDS011;71954;47.430;18.920;2024-02-21T00:49:01;2.17;;;1.00;;
82352;SDS011;71954;47.430;18.920;2024-02-21T00:51:27;2.47;;;1.10;;
82352;SDS011;71954;47.430;18.920;2024-02-21T00:53:54;2.70;;;0.90;;
82352;SDS011;71954;47.430;18.920;2024-02-21T00:56:21;4.35;;;1.13;;
82352;SDS011;71954;47.430;18.920;2024-02-21T00:58:47;5.75;;;1.50;;
82352;SDS011;71954;47.430;18.920;2024-02-21T01:01:20;4.95;;;1.30;;
82352;SDS011;71954;47.430;18.920;2024-02-21T01:03:48;4.10;;;1.30;;
82352;SDS011;71954;47.430;18.920;2024-02-21T01:06:15;4.80;;;1.55;;
82352;SDS011;71954;47.430;18.920;2024-02-21T01:08:42;4.93;;;1.33;;
82352;SDS011;71954;47.430;18.920;2024-02-21T01:11:09;4.05;;;1.25;;
82352;SDS011;71954;47.430;18.920;2024-02-21T01:13:35;2.60;;;1.08;;
82352;SDS011;71954;47.430;18.920;2024-02-21T01:16:02;5.45;;;1.42;;
82352;SDS011;71954;47.430;18.920;2024-02-21T01:18:29;2.95;;;1.20;;
82352;SDS011;71954;47.430;18.920;2024-02-21T01:20:55;2.85;;;1.25;;
82352;SDS011;71954;47.430;18.920;2024-02-21T01:23:22;4.13;;;1.33;;
82352;SDS011;71954;47.430;18.920;2024-02-21T01:25:49;4.88;;;1.52;;
82352;SDS011;71954;47.430;18.920;2024-02-21T01:28:15;4.05;;;1.27;;
82352;SDS011;71954;47.430;18.920;2024-02-21T01:30:42;4.25;;;1.77;;
82352;SDS011;71954;47.430;18.920;2024-02-21T01:33:09;4.45;;;1.50;;
82352;SDS011;71954;47.430;18.920;2024-02-21T01:35:36;4.63;;;1.52;;
82352;SDS011;71954;47.430;18.920;2024-02-21T01:40:31;3.72;;;1.60;;
82352;SDS011;71954;47.430;18.920;2024-02-21T01:42:57;4.28;;;1.63;;
82352;SDS011;71954;47.430;18.920;2024-02-21T01:45:24;4.45;;;1.70;;
82352;SDS011;71954;47.430;18.920;2024-02-21T01:47:51;3.15;;;1.65;;
82352;SDS011;71954;47.430;18.920;2024-02-21T01:50:17;4.35;;;2.00;;
82352;SDS011;71954;47.430;18.920;2024-02-21T01:52:45;6.90;;;1.95;;
82352;SDS011;71954;47.430;18.920;2024-02-21T01:55:15;4.45;;;1.80;;
82352;SDS011;71954;47.430;18.920;2024-02-21T01:57:42;4.30;;;1.63;;
82352;SDS011;71954;47.430;18.920;2024-02-21T02:00:13;4.38;;;1.98;;
82352;SDS011;71954;47.430;18.920;2024-02-21T02:02:41;4.03;;;1.85;;
82352;SDS011;71954;47.430;18.920;2024-02-21T02:05:08;4.05;;;2.20;;
82352;SDS011;71954;47.430;18.920;2024-02-21T02:07:35;5.07;;;2.10;;
82352;SDS011;71954;47.430;18.920;2024-02-21T02:10:02;2.90;;;1.42;;
82352;SDS011;71954;47.430;18.920;2024-02-21T02:12:29;5.55;;;1.73;;
82352;SDS011;71954;47.430;18.920;2024-02-21T02:15:02;3.13;;;1.63;;
82352;SDS011;71954;47.430;18.920;2024-02-21T02:17:33;6.25;;;1.90;;
82352;SDS011;71954;47.430;18.920;2024-02-21T02:19:59;3.20;;;1.45;;
82352;SDS011;71954;47.430;18.920;2024-02-21T02:22:29;4.15;;;1.90;;
82352;SDS011;71954;47.430;18.920;2024-02-21T02:24:59;5.97;;;1.85;;
82352;SDS011;71954;47.430;18.920;2024-02-21T02:27:27;3.20;;;1.80;;
82352;SDS011;71954;47.430;18.920;2024-02-21T02:29:53;6.25;;;2.00;;
82352;SDS011;71954;47.430;18.920;2024-02-21T02:32:20;5.50;;;2.25;;
82352;SDS011;71954;47.430;18.920;2024-02-21T02:34:47;3.50;;;1.55;;
82352;SDS011;71954;47.430;18.920;2024-02-21T02:37:13;4.82;;;1.98;;
82352;SDS011;71954;47.430;18.920;2024-02-21T02:39:40;6.95;;;1.67;;
82352;SDS011;71954;47.430;18.920;2024-02-21T02:42:06;3.17;;;1.50;;
82352;SDS011;71954;47.430;18.920;2024-02-21T02:44:33;3.45;;;1.80;;
82352;SDS011;71954;47.430;18.920;2024-02-21T02:47:00;3.80;;;1.50;;
82352;SDS011;71954;47.430;18.920;2024-02-21T02:49:26;3.10;;;1.40;;
82352;SDS011;71954;47.430;18.920;2024-02-21T02:51:53;3.17;;;1.50;;
82352;SDS011;71954;47.430;18.920;2024-02-21T02:54:20;3.53;;;1.60;;
82352;SDS011;71954;47.430;18.920;2024-02-21T02:56:47;3.30;;;1.40;;
82352;SDS011;71954;47.430;18.920;2024-02-21T02:59:14;3.00;;;1.13;;
82352;SDS011;71954;47.430;18.920;2024-02-21T03:01:40;3.47;;;1.77;;
82352;SDS011;71954;47.430;18.920;2024-02-21T03:04:07;3.25;;;1.38;;
82352;SDS011;71954;47.430;18.920;2024-02-21T03:06:33;4.13;;;1.50;;
82352;SDS011;71954;47.430;18.920;2024-02-21T03:09:00;6.22;;;1.45;;
82352;SDS011;71954;47.430;18.920;2024-02-21T03:11:27;5.45;;;1.63;;
82352;SDS011;71954;47.430;18.920;2024-02-21T03:13:56;3.50;;;1.55;;
82352;SDS011;71954;47.430;18.920;2024-02-21T03:16:23;5.75;;;1.52;;
82352;SDS011;71954;47.430;18.920;2024-02-21T03:18:50;5.00;;;1.67;;
82352;SDS011;71954;47.430;18.920;2024-02-21T03:21:16;3.92;;;1.20;;
82352;SDS011;71954;47.430;18.920;2024-02-21T03:23:43;4.97;;;1.58;;
82352;SDS011;71954;47.430;18.920;2024-02-21T03:26:10;3.92;;;1.48;;
82352;SDS011;71954;47.430;18.920;2024-02-21T03:28:36;5.07;;;1.42;;
82352;SDS011;71954;47.430;18.920;2024-02-21T03:31:03;5.20;;;1.67;;
82352;SDS011;71954;47.430;18.920;2024-02-21T03:33:30;4.40;;;1.38;;
82352;SDS011;71954;47.430;18.920;2024-02-21T03:35:57;4.40;;;1.50;;
82352;SDS011;71954;47.430;18.920;2024-02-21T03:38:23;3.15;;;1.50;;
82352;SDS011;71954;47.430;18.920;2024-02-21T03:40:50;4.05;;;1.52;;
82352;SDS011;71954;47.430;18.920;2024-02-21T03:43:16;6.22;;;1.60;;
82352;SDS011;71954;47.430;18.920;2024-02-21T03:45:43;4.45;;;1.35;;
82352;SDS011;71954;47.430;18.920;2024-02-21T03:48:10;6.38;;;2.03;;
82352;SDS011;71954;47.430;18.920;2024-02-21T03:50:36;4.90;;;1.63;;
82352;SDS011;71954;47.430;18.920;2024-02-21T03:53:03;3.35;;;1.50;;
82352;SDS011;71954;47.430;18.920;2024-02-21T03:55:30;4.25;;;1.65;;
82352;SDS011;71954;47.430;18.920;2024-02-21T03:57:56;4.75;;;1.45;;
82352;SDS011;71954;47.430;18.920;2024-02-21T04:00:23;3.58;;;1.40;;
82352;SDS011;71954;47.430;18.920;2024-02-21T04:02:50;4.18;;;1.63;;
82352;SDS011;71954;47.430;18.920;2024-02-21T04:05:16;2.95;;;1.45;;
82352;SDS011;71954;47.430;18.920;2024-02-21T04:07:43;5.05;;;1.35;;
82352;SDS011;71954;47.430;18.920;2024-02-21T04:10:10;3.80;;;1.60;;
82352;SDS011;71954;47.430;18.920;2024-02-21T04:12:37;3.92;;;1.60;;
82352;SDS011;71954;47.430;18.920;2024-02-21T04:15:04;4.50;;;1.65;;
82352;SDS011;71954;47.430;18.920;2024-02-21T04:17:32;5.15;;;2.03;;
82352;SDS011;71954;47.430;18.920;2024-02-21T04:20:03;3.95;;;1.73;;
82352;SDS011;71954;47.430;18.920;2024-02-21T04:22:32;3.15;;;1.30;;
82352;SDS011;71954;47.430;18.920;2024-02-21T04:24:59;3.40;;;1.52;;
82352;SDS011;71954;47.430;18.920;2024-02-21T04:27:26;4.10;;;1.33;;
82352;SDS011;71954;47.430;18.920;2024-02-21T04:29:53;4.35;;;1.50;;
82352;SDS011;71954;47.430;18.920;2024-02-21T04:32:20;8.00;;;1.90;;
82352;SDS011;71954;47.430;18.920;2024-02-21T04:34:47;4.00;;;1.63;;
82352;SDS011;71954;47.430;18.920;2024-02-21T04:37:13;3.63;;;1.50;;
82352;SDS011;71954;47.430;18.920;2024-02-21T04:39:40;2.70;;;1.17;;
82352;SDS011;71954;47.430;18.920;2024-02-21T04:42:07;4.30;;;1.55;;
82352;SDS011;71954;47.430;18.920;2024-02-21T04:44:33;4.63;;;2.10;;
82352;SDS011;71954;47.430;18.920;2024-02-21T04:47:00;3.47;;;1.25;;
82352;SDS011;71954;47.430;18.920;2024-02-21T04:49:27;4.13;;;1.65;;
82352;SDS011;71954;47.430;18.920;2024-02-21T04:51:54;4.20;;;1.67;;
82352;SDS011;71954;47.430;18.920;2024-02-21T04:54:20;4.43;;;1.60;;
82352;SDS011;71954;47.430;18.920;2024-02-21T04:56:47;2.70;;;1.15;;
82352;SDS011;71954;47.430;18.920;2024-02-21T04:59:18;3.90;;;1.80;;
82352;SDS011;71954;47.430;18.920;2024-02-21T05:01:45;5.38;;;1.90;;
82352;SDS011;71954;47.430;18.920;2024-02-21T05:04:12;6.57;;;1.98;;
82352;SDS011;71954;47.430;18.920;2024-02-21T05:06:39;4.10;;;1.65;;
82352;SDS011;71954;47.430;18.920;2024-02-21T05:09:07;5.05;;;2.13;;
82352;SDS011;71954;47.430;18.920;2024-02-21T05:11:37;3.78;;;1.67;;
82352;SDS011;71954;47.430;18.920;2024-02-21T05:14:04;4.35;;;1.50;;
82352;SDS011;71954;47.430;18.920;2024-02-21T05:16:31;4.68;;;1.77;;
82352;SDS011;71954;47.430;18.920;2024-02-21T05:18:58;4.53;;;1.95;;
82352;SDS011;71954;47.430;18.920;2024-02-21T05:21:24;6.03;;;2.20;;
82352;SDS011;71954;47.430;18.920;2024-02-21T05:23:51;3.50;;;1.85;;
82352;SDS011;71954;47.430;18.920;2024-02-21T05:26:21;3.63;;;1.42;;
82352;SDS011;71954;47.430;18.920;2024-02-21T05:28:49;5.15;;;1.90;;
82352;SDS011;71954;47.430;18.920;2024-02-21T05:31:18;4.60;;;1.83;;
82352;SDS011;71954;47.430;18.920;2024-02-21T05:33:45;3.85;;;1.85;;
82352;SDS011;71954;47.430;18.920;2024-02-21T05:36:12;3.72;;;1.75;;
82352;SDS011;71954;47.430;18.920;2024-02-21T05:41:06;4.53;;;1.65;;
82352;SDS011;71954;47.430;18.920;2024-02-21T05:43:37;3.97;;;1.75;;
82352;SDS011;71954;47.430;18.920;2024-02-21T05:46:04;6.30;;;1.80;;
82352;SDS011;71954;47.430;18.920;2024-02-21T05:48:30;3.90;;;1.60;;
82352;SDS011;71954;47.430;18.920;2024-02-21T05:51:02;4.80;;;1.52;;
82352;SDS011;71954;47.430;18.920;2024-02-21T05:53:29;3.67;;;1.90;;
82352;SDS011;71954;47.430;18.920;2024-02-21T05:55:56;5.10;;;1.95;;
82352;SDS011;71954;47.430;18.920;2024-02-21T05:58:22;3.55;;;1.65;;
82352;SDS011;71954;47.430;18.920;2024-02-21T06:00:49;6.25;;;2.03;;
82352;SDS011;71954;47.430;18.920;2024-02-21T06:03:16;5.03;;;2.03;;
82352;SDS011;71954;47.430;18.920;2024-02-21T06:05:42;4.10;;;1.80;;
82352;SDS011;71954;47.430;18.920;2024-02-21T06:08:09;5.05;;;2.10;;
82352;SDS011;71954;47.430;18.920;2024-02-21T06:10:36;4.68;;;1.52;;
82352;SDS011;71954;47.430;18.920;2024-02-21T06:13:03;4.90;;;1.83;;
82352;SDS011;71954;47.430;18.920;2024-02-21T06:15:29;4.45;;;2.08;;
82352;SDS011;71954;47.430;18.920;2024-02-21T06:17:56;4.22;;;1.50;;
82352;SDS011;71954;47.430;18.920;2024-02-21T06:20:23;3.60;;;1.58;;
82352;SDS011;71954;47.430;18.920;2024-02-21T06:22:50;3.10;;;1.63;;
82352;SDS011;71954;47.430;18.920;2024-02-21T06:25:16;4.90;;;1.88;;
82352;SDS011;71954;47.430;18.920;2024-02-21T06:27:43;4.40;;;1.85;;
82352;SDS011;71954;47.430;18.920;2024-02-21T06:30:10;5.97;;;2.08;;
82352;SDS011;71954;47.430;18.920;2024-02-21T06:32:37;3.97;;;1.92;;
82352;SDS011;71954;47.430;18.920;2024-02-21T06:35:04;3.97;;;1.67;;
82352;SDS011;71954;47.430;18.920;2024-02-21T06:39:58;4.22;;;1.88;;
82352;SDS011;71954;47.430;18.920;2024-02-21T06:42:25;4.20;;;1.58;;
82352;SDS011;71954;47.430;18.920;2024-02-21T06:44:52;5.93;;;2.03;;
82352;SDS011;71954;47.430;18.920;2024-02-21T06:47:18;6.15;;;2.10;;
82352;SDS011;71954;47.430;18.920;2024-02-21T06:49:49;5.70;;;2.45;;
82352;SDS011;71954;47.430;18.920;2024-02-21T06:52:19;10.15;;;3.67;;
82352;SDS011;71954;47.430;18.920;2024-02-21T06:54:47;7.05;;;3.05;;
82352;SDS011;71954;47.430;18.920;2024-02-21T06:57:13;7.82;;;2.92;;
82352;SDS011;71954;47.430;18.920;2024-02-21T06:59:41;7.80;;;3.22;;
82352;SDS011;71954;47.430;18.920;2024-02-21T07:02:08;8.35;;;3.00;;
82352;SDS011;71954;47.430;18.920;2024-02-21T07:04:35;6.45;;;2.35;;
82352;SDS011;71954;47.430;18.920;2024-02-21T07:07:02;4.90;;;2.67;;
82352;SDS011;71954;47.430;18.920;2024-02-21T07:09:29;5.40;;;1.92;;
82352;SDS011;71954;47.430;18.920;2024-02-21T07:11:58;4.72;;;2.15;;
82352;SDS011;71954;47.430;18.920;2024-02-21T07:14:27;6.55;;;2.13;;
82352;SDS011;71954;47.430;18.920;2024-02-21T07:16:54;3.78;;;1.77;;
82352;SDS011;71954;47.430;18.920;2024-02-21T07:19:23;4.40;;;2.00;;
82352;SDS011;71954;47.430;18.920;2024-02-21T07:21:50;5.68;;;2.22;;
82352;SDS011;71954;47.430;18.920;2024-02-21T07:24:17;7.65;;;2.25;;
82352;SDS011;71954;47.430;18.920;2024-02-21T07:26:43;7.57;;;2.00;;
82352;SDS011;71954;47.430;18.920;2024-02-21T07:29:10;6.43;;;2.15;;
82352;SDS011;71954;47.430;18.920;2024-02-21T07:31:43;6.53;;;2.35;;
82352;SDS011;71954;47.430;18.920;2024-02-21T07:34:10;4.10;;;1.98;;
82352;SDS011;71954;47.430;18.920;2024-02-21T07:36:37;4.55;;;2.08;;
82352;SDS011;71954;47.430;18.920;2024-02-21T07:39:05;4.97;;;1.88;;
82352;SDS011;71954;47.430;18.920;2024-02-21T07:41:32;5.28;;;2.05;;
82352;SDS011;71954;47.430;18.920;2024-02-21T07:44:00;5.97;;;2.33;;
82352;SDS011;71954;47.430;18.920;2024-02-21T07:46:27;7.43;;;1.90;;
82352;SDS011;71954;47.430;18.920;2024-02-21T07:48:53;5.80;;;2.22;;
82352;SDS011;71954;47.430;18.920;2024-02-21T07:51:20;8.32;;;2.33;;
82352;SDS011;71954;47.430;18.920;2024-02-21T07:53:47;6.07;;;2.65;;
82352;SDS011;71954;47.430;18.920;2024-02-21T07:56:15;6.43;;;1.95;;
82352;SDS011;71954;47.430;18.920;2024-02-21T07:58:42;8.27;;;3.10;;
82352;SDS011;71954;47.430;18.920;2024-02-21T08:01:09;6.70;;;2.63;;
82352;SDS011;71954;47.430;18.920;2024-02-21T08:06:03;5.28;;;2.28;;
82352;SDS011;71954;47.430;18.920;2024-02-21T08:08:29;4.60;;;2.25;;
82352;SDS011;71954;47.430;18.920;2024-02-21T08:10:57;5.55;;;1.98;;
82352;SDS011;71954;47.430;18.920;2024-02-21T08:13:24;6.68;;;2.55;;
82352;SDS011;71954;47.430;18.920;2024-02-21T08:20:45;5.65;;;1.73;;
82352;SDS011;71954;47.430;18.920;2024-02-21T08:23:11;7.70;;;2.00;;
82352;SDS011;71954;47.430;18.920;2024-02-21T08:25:38;6.20;;;2.33;;
82352;SDS011;71954;47.430;18.920;2024-02-21T08:28:05;7.13;;;3.15;;
82352;SDS011;71954;47.430;18.920;2024-02-21T08:30:32;7.20;;;2.53;;
82352;SDS011;71954;47.430;18.920;2024-02-21T08:32:58;6.20;;;2.10;;
82352;SDS011;71954;47.430;18.920;2024-02-21T08:35:26;7.30;;;2.30;;
82352;SDS011;71954;47.430;18.920;2024-02-21T08:37:52;7.82;;;2.20;;
82352;SDS011;71954;47.430;18.920;2024-02-21T08:40:19;4.53;;;1.92;;
82352;SDS011;71954;47.430;18.920;2024-02-21T08:42:48;6.78;;;2.40;;
82352;SDS011;71954;47.430;18.920;2024-02-21T08:45:16;5.68;;;2.25;;
82352;SDS011;71954;47.430;18.920;2024-02-21T08:47:42;8.05;;;2.35;;
82352;SDS011;71954;47.430;18.920;2024-02-21T08:50:09;5.82;;;2.53;;
82352;SDS011;71954;47.430;18.920;2024-02-21T08:52:52;5.80;;;2.30;;
82352;SDS011;71954;47.430;18.920;2024-02-21T08:55:19;6.70;;;2.75;;
82352;SDS011;71954;47.430;18.920;2024-02-21T08:57:46;6.65;;;2.30;;
82352;SDS011;71954;47.430;18.920;2024-02-21T09:00:13;9.70;;;2.95;;
82352;SDS011;71954;47.430;18.920;2024-02-21T09:02:40;5.70;;;2.47;;
82352;SDS011;71954;47.430;18.920;2024-02-21T09:05:10;5.50;;;1.77;;
82352;SDS011;71954;47.430;18.920;2024-02-21T09:07:37;5.97;;;2.50;;
82352;SDS011;71954;47.430;18.920;2024-02-21T09:10:04;8.73;;;2.45;;
82352;SDS011;71954;47.430;18.920;2024-02-21T09:12:34;10.38;;;2.42;;
82352;SDS011;71954;47.430;18.920;2024-02-21T09:15:01;8.40;;;3.17;;
82352;SDS011;71954;47.430;18.920;2024-02-21T09:17:28;8.15;;;2.45;;
82352;SDS011;71954;47.430;18.920;2024-02-21T09:19:56;6.95;;;2.80;;
82352;SDS011;71954;47.430;18.920;2024-02-21T09:22:26;5.70;;;2.75;;
82352;SDS011;71954;47.430;18.920;2024-02-21T09:24:53;5.38;;;2.15;;
82352;SDS011;71954;47.430;18.920;2024-02-21T09:27:19;6.50;;;2.25;;
82352;SDS011;71954;47.430;18.920;2024-02-21T09:29:46;7.45;;;3.25;;
82352;SDS011;71954;47.430;18.920;2024-02-21T09:32:13;5.13;;;2.03;;
82352;SDS011;71954;47.430;18.920;2024-02-21T09:34:40;6.78;;;2.55;;
82352;SDS011;71954;47.430;18.920;2024-02-21T09:37:07;7.63;;;2.72;;
82352;SDS011;71954;47.430;18.920;2024-02-21T09:39:34;5.38;;;2.40;;
82352;SDS011;71954;47.430;18.920;2024-02-21T09:42:05;7.10;;;2.58;;
82352;SDS011;71954;47.430;18.920;2024-02-21T09:44:36;7.10;;;2.13;;
82352;SDS011;71954;47.430;18.920;2024-02-21T09:47:06;5.60;;;2.38;;
82352;SDS011;71954;47.430;18.920;2024-02-21T09:49:58;5.55;;;2.38;;
82352;SDS011;71954;47.430;18.920;2024-02-21T09:52:27;8.90;;;2.83;;
82352;SDS011;71954;47.430;18.920;2024-02-21T09:54:54;7.60;;;2.92;;
82352;SDS011;71954;47.430;18.920;2024-02-21T09:57:21;11.48;;;2.85;;
82352;SDS011;71954;47.430;18.920;2024-02-21T09:59:49;10.80;;;2.22;;
82352;SDS011;71954;47.430;18.920;2024-02-21T10:02:16;9.45;;;3.42;;
82352;SDS011;71954;47.430;18.920;2024-02-21T10:04:43;7.43;;;2.30;;
82352;SDS011;71954;47.430;18.920;2024-02-21T10:07:10;4.82;;;2.20;;
82352;SDS011;71954;47.430;18.920;2024-02-21T10:09:37;7.38;;;2.20;;
82352;SDS011;71954;47.430;18.920;2024-02-21T10:12:11;7.53;;;2.05;;
82352;SDS011;71954;47.430;18.920;2024-02-21T10:14:40;7.68;;;2.78;;
82352;SDS011;71954;47.430;18.920;2024-02-21T10:17:06;9.63;;;2.75;;
82352;SDS011;71954;47.430;18.920;2024-02-21T10:19:37;8.52;;;3.17;;
82352;SDS011;71954;47.430;18.920;2024-02-21T10:22:09;9.15;;;3.15;;
82352;SDS011;71954;47.430;18.920;2024-02-21T10:24:36;8.45;;;1.95;;
82352;SDS011;71954;47.430;18.920;2024-02-21T10:27:10;7.07;;;2.33;;
82352;SDS011;71954;47.430;18.920;2024-02-21T10:29:41;6.85;;;2.92;;
82352;SDS011;71954;47.430;18.920;2024-02-21T10:34:40;7.65;;;2.65;;
82352;SDS011;71954;47.430;18.920;2024-02-21T10:37:09;8.57;;;2.30;;
82352;SDS011;71954;47.430;18.920;2024-02-21T10:39:39;8.45;;;3.00;;
82352;SDS011;71954;47.430;18.920;2024-02-21T10:42:09;6.07;;;2.58;;
82352;SDS011;71954;47.430;18.920;2024-02-21T10:44:38;13.15;;;3.83;;
82352;SDS011;71954;47.430;18.920;2024-02-21T10:47:10;7.07;;;2.63;;
82352;SDS011;71954;47.430;18.920;2024-02-21T10:49:40;10.85;;;2.88;;
82352;SDS011;71954;47.430;18.920;2024-02-21T10:57:37;10.65;;;3.53;;
82352;SDS011;71954;47.430;18.920;2024-02-21T11:00:04;6.35;;;2.63;;
82352;SDS011;71954;47.430;18.920;2024-02-21T11:02:34;9.02;;;2.72;;
82352;SDS011;71954;47.430;18.920;2024-02-21T11:05:02;5.82;;;2.08;;
82352;SDS011;71954;47.430;18.920;2024-02-21T11:07:31;6.15;;;2.15;;
82352;SDS011;71954;47.430;18.920;2024-02-21T11:09:59;8.10;;;2.67;;
82352;SDS011;71954;47.430;18.920;2024-02-21T11:12:27;6.13;;;2.00;;
82352;SDS011;71954;47.430;18.920;2024-02-21T11:15:03;6.90;;;2.20;;
82352;SDS011;71954;47.430;18.920;2024-02-21T11:17:33;6.47;;;2.40;;
82352;SDS011;71954;47.430;18.920;2024-02-21T11:20:12;6.97;;;2.28;;
82352;SDS011;71954;47.430;18.920;2024-02-21T11:22:43;7.57;;;2.55;;
82352;SDS011;71954;47.430;18.920;2024-02-21T11:25:10;7.97;;;3.30;;
82352;SDS011;71954;47.430;18.920;2024-02-21T11:27:45;6.13;;;3.05;;
82352;SDS011;71954;47.430;18.920;2024-02-21T11:30:12;6.85;;;2.50;;
82352;SDS011;71954;47.430;18.920;2024-02-21T11:32:40;7.75;;;3.20;;
82352;SDS011;71954;47.430;18.920;2024-02-21T11:35:07;7.57;;;2.83;;
82352;SDS011;71954;47.430;18.920;2024-02-21T11:37:35;8.10;;;2.60;;
82352;SDS011;71954;47.430;18.920;2024-02-21T11:40:06;8.48;;;2.45;;
82352;SDS011;71954;47.430;18.920;2024-02-21T11:42:37;5.28;;;2.45;;
82352;SDS011;71954;47.430;18.920;2024-02-21T11:45:04;11.40;;;3.17;;
82352;SDS011;71954;47.430;18.920;2024-02-21T11:47:32;6.25;;;2.38;;
82352;SDS011;71954;47.430;18.920;2024-02-21T11:52:26;9.82;;;2.42;;
82352;SDS011;71954;47.430;18.920;2024-02-21T11:54:55;4.88;;;2.20;;
82352;SDS011;71954;47.430;18.920;2024-02-21T11:57:30;5.97;;;2.15;;
82352;SDS011;71954;47.430;18.920;2024-02-21T11:59:57;6.47;;;2.05;;
82352;SDS011;71954;47.430;18.920;2024-02-21T12:02:27;9.55;;;2.58;;
82352;SDS011;71954;47.430;18.920;2024-02-21T12:04:55;6.20;;;1.90;;
82352;SDS011;71954;47.430;18.920;2024-02-21T12:07:22;4.63;;;1.45;;
82352;SDS011;71954;47.430;18.920;2024-02-21T12:09:50;6.35;;;1.70;;
82352;SDS011;71954;47.430;18.920;2024-02-21T12:12:19;4.32;;;1.70;;
82352;SDS011;71954;47.430;18.920;2024-02-21T12:14:47;7.50;;;1.52;;
82352;SDS011;71954;47.430;18.920;2024-02-21T12:17:21;4.57;;;1.70;;
82352;SDS011;71954;47.430;18.920;2024-02-21T12:19:49;5.57;;;2.10;;
82352;SDS011;71954;47.430;18.920;2024-02-21T12:22:18;5.55;;;1.50;;
82352;SDS011;71954;47.430;18.920;2024-02-21T12:24:46;7.95;;;1.45;;
82352;SDS011;71954;47.430;18.920;2024-02-21T12:27:14;5.03;;;1.58;;
82352;SDS011;71954;47.430;18.920;2024-02-21T12:29:41;7.10;;;1.20;;
82352;SDS011;71954;47.430;18.920;2024-02-21T12:32:07;6.85;;;1.65;;
82352;SDS011;71954;47.430;18.920;2024-02-21T12:34:35;4.43;;;1.70;;
82352;SDS011;71954;47.430;18.920;2024-02-21T12:37:18;5.10;;;1.80;;
82352;SDS011;71954;47.430;18.920;2024-02-21T12:39:47;3.53;;;1.42;;
82352;SDS011;71954;47.430;18.920;2024-02-21T12:44:40;6.53;;;1.70;;
82352;SDS011;71954;47.430;18.920;2024-02-21T12:47:08;6.68;;;2.30;;
82352;SDS011;71954;47.430;18.920;2024-02-21T12:49:35;6.85;;;2.13;;
82352;SDS011;71954;47.430;18.920;2024-02-21T12:52:02;5.70;;;1.75;;
82352;SDS011;71954;47.430;18.920;2024-02-21T12:56:57;9.07;;;2.10;;
82352;SDS011;71954;47.430;18.920;2024-02-21T13:01:52;7.10;;;1.63;;
82352;SDS011;71954;47.430;18.920;2024-02-21T13:04:19;5.35;;;1.95;;
82352;SDS011;71954;47.430;18.920;2024-02-21T13:06:48;6.07;;;2.10;;
82352;SDS011;71954;47.430;18.920;2024-02-21T13:09:15;5.53;;;1.90;;
82352;SDS011;71954;47.430;18.920;2024-02-21T13:11:42;7.07;;;1.83;;
82352;SDS011;71954;47.430;18.920;2024-02-21T13:14:11;4.30;;;1.90;;
82352;SDS011;71954;47.430;18.920;2024-02-21T13:19:08;4.70;;;1.60;;
82352;SDS011;71954;47.430;18.920;2024-02-21T13:24:02;4.45;;;1.83;;
82352;SDS011;71954;47.430;18.920;2024-02-21T13:28:56;4.63;;;1.63;;
82352;SDS011;71954;47.430;18.920;2024-02-21T13:31:22;6.82;;;1.85;;
82352;SDS011;71954;47.430;18.920;2024-02-21T13:33:51;5.70;;;1.85;;
82352;SDS011;71954;47.430;18.920;2024-02-21T13:36:18;4.60;;;1.63;;
82352;SDS011;71954;47.430;18.920;2024-02-21T13:38:45;6.25;;;1.70;;
82352;SDS011;71954;47.430;18.920;2024-02-21T13:41:13;5.68;;;1.95;;
82352;SDS011;71954;47.430;18.920;2024-02-21T13:43:40;5.28;;;1.83;;
82352;SDS011;71954;47.430;18.920;2024-02-21T13:46:07;6.43;;;2.05;;
82352;SDS011;71954;47.430;18.920;2024-02-21T13:48:36;7.28;;;1.50;;
82352;SDS011;71954;47.430;18.920;2024-02-21T13:51:03;4.75;;;2.13;;
82352;SDS011;71954;47.430;18.920;2024-02-21T13:53:30;7.90;;;1.92;;
82352;SDS011;71954;47.430;18.920;2024-02-21T13:55:57;6.75;;;2.08;;
82352;SDS011;71954;47.430;18.920;2024-02-21T13:58:24;7.35;;;1.77;;
82352;SDS011;71954;47.430;18.920;2024-02-21T14:00:52;5.03;;;1.77;;
82352;SDS011;71954;47.430;18.920;2024-02-21T14:05:46;9.15;;;2.35;;
82352;SDS011;71954;47.430;18.920;2024-02-21T14:08:14;5.22;;;1.48;;
82352;SDS011;71954;47.430;18.920;2024-02-21T14:13:08;5.03;;;1.20;;
82352;SDS011;71954;47.430;18.920;2024-02-21T14:15:35;7.90;;;1.90;;
82352;SDS011;71954;47.430;18.920;2024-02-21T14:18:04;8.02;;;1.77;;
82352;SDS011;71954;47.430;18.920;2024-02-21T14:20:35;9.20;;;1.23;;
82352;SDS011;71954;47.430;18.920;2024-02-21T14:23:02;5.97;;;1.73;;
82352;SDS011;71954;47.430;18.920;2024-02-21T14:25:31;5.28;;;1.52;;
82352;SDS011;71954;47.430;18.920;2024-02-21T14:28:00;8.68;;;2.10;;
82352;SDS011;71954;47.430;18.920;2024-02-21T14:30:27;6.07;;;2.05;;
82352;SDS011;71954;47.430;18.920;2024-02-21T14:32:54;3.33;;;1.50;;
82352;SDS011;71954;47.430;18.920;2024-02-21T14:35:20;5.28;;;1.70;;
82352;SDS011;71954;47.430;18.920;2024-02-21T14:37:47;7.35;;;1.95;;
82352;SDS011;71954;47.430;18.920;2024-02-21T14:40:18;7.03;;;1.65;;
82352;SDS011;71954;47.430;18.920;2024-02-21T14:42:48;4.55;;;1.65;;
82352;SDS011;71954;47.430;18.920;2024-02-21T14:45:14;7.88;;;2.30;;
82352;SDS011;71954;47.430;18.920;2024-02-21T14:47:41;9.13;;;2.75;;
82352;SDS011;71954;47.430;18.920;2024-02-21T14:50:09;5.70;;;2.10;;
82352;SDS011;71954;47.430;18.920;2024-02-21T14:52:37;6.85;;;2.33;;
82352;SDS011;71954;47.430;18.920;2024-02-21T14:55:04;5.63;;;1.90;;
82352;SDS011;71954;47.430;18.920;2024-02-21T14:57:32;4.68;;;2.05;;
82352;SDS011;71954;47.430;18.920;2024-02-21T14:59:58;6.88;;;2.50;;
82352;SDS011;71954;47.430;18.920;2024-02-21T15:02:27;7.22;;;1.85;;
82352;SDS011;71954;47.430;18.920;2024-02-21T15:04:55;7.90;;;1.88;;
82352;SDS011;71954;47.430;18.920;2024-02-21T15:07:22;7.60;;;1.75;;
82352;SDS011;71954;47.430;18.920;2024-02-21T15:09:51;6.93;;;1.40;;
82352;SDS011;71954;47.430;18.920;2024-02-21T15:12:18;5.90;;;1.63;;
82352;SDS011;71954;47.430;18.920;2024-02-21T15:14:45;5.47;;;1.33;;
82352;SDS011;71954;47.430;18.920;2024-02-21T15:17:11;3.42;;;1.40;;
82352;SDS011;71954;47.430;18.920;2024-02-21T15:19:39;4.00;;;1.48;;